Svend Maersk — OYJS2 — position and weather

sailwx.info

Track history (hours):
 
Tides and Currents Weather Stations Pressure Air Temp Water Temp Dewpoint Dewpoint Depression Visibility Wind Speed Wind Dir Waves Ship Positions

Svend Maersk

Last reported at 2015-Jun-22 13:17 UTC. Time now 2015-Jul-03 10:38 UTC.
Position N 33°34' W 127°10'.
Warning: this ship's position is 10 days out of date.

Type: Ship (hazmat cat A). MMSI: 219791000.

Date/timePositionNaut miles runAvg speedWind from/ knotsBaromVisibWave heightAir tempDewpointWater temp
2015-Jun-22 13:17N 33°34' W 127°10'912.0
2015-Jun-22 12:33N 33°29' W 127°02'1512.0
2015-Jun-22 11:19N 33°20' W 126°47'1512.0
2015-Jun-22 10:05N 33°11' W 126°33'611.9
2015-Jun-22 09:33N 33°07' W 126°27'1311.9
2015-Jun-22 08:29N 32°60' W 126°15'1112.0
2015-Jun-22 07:33N 32°53' W 126°04'4112.1
2015-Jun-22 04:12N 32°28' W 125°26'3211.9
2015-Jun-22 01:30N 32°08' W 124°56'1512.0
2015-Jun-22 00:15N 31°59' W 124°42'4311.7
2015-Jun-21 20:32N 31°33' W 124°02'1111.4
2015-Jun-21 19:33N 31°26' W 123°51'2311.4
2015-Jun-21 17:33N 31°11' W 123°30'1211.5
2015-Jun-21 16:30N 31°04' W 123°19'1111.4
2015-Jun-21 15:33N 30°57' W 123°10'1211.4
2015-Jun-21 14:31N 30°50' W 122°59'1111.6
2015-Jun-21 13:33N 30°43' W 122°49'1211.7
2015-Jun-21 12:33N 30°36' W 122°38'1211.8
2015-Jun-21 11:33N 30°28' W 122°27'1211.8
2015-Jun-21 10:33N 30°21' W 122°17'1211.8
2015-Jun-21 09:33N 30°13' W 122°07'1211.9
2015-Jun-21 08:33N 30°05' W 121°56'1212.1
2015-Jun-21 07:33N 29°57' W 121°46'1212.0
2015-Jun-21 06:33N 29°50' W 121°35'1211.9
2015-Jun-21 05:33N 29°42' W 121°25'1211.8
2015-Jun-21 04:33N 29°35' W 121°14'1211.8
2015-Jun-21 03:33N 29°27' W 121°04'1211.8
2015-Jun-21 02:33N 29°19' W 120°53'1211.6
2015-Jun-21 01:33N 29°12' W 120°43'1211.8
2015-Jun-21 00:33N 29°04' W 120°33'1212.1
2015-Jun-20 23:33N 28°57' W 120°22'1212.0
2015-Jun-20 22:33N 28°49' W 120°12'1211.9
2015-Jun-20 21:33N 28°41' W 120°01'1211.9
2015-Jun-20 20:33N 28°33' W 119°51'1212.1
2015-Jun-20 19:33N 28°25' W 119°41'1212.0
2015-Jun-20 18:33N 28°18' W 119°30'1211.8
2015-Jun-20 17:33N 28°10' W 119°20'1111.4
2015-Jun-20 16:33N 28°03' W 119°10'1111.5
2015-Jun-20 15:33N 27°56' W 119°00'1111.3
2015-Jun-20 14:33N 27°48' W 118°50'1211.2
2015-Jun-20 13:31N 27°41' W 118°40'1111.3
2015-Jun-20 12:33N 27°34' W 118°31'1111.3
2015-Jun-20 11:33N 27°26' W 118°21'1111.5
2015-Jun-20 10:33N 27°19' W 118°11'1211.5
2015-Jun-20 09:33N 27°12' W 118°01'1211.5
2015-Jun-20 08:33N 27°04' W 117°51'1211.8
2015-Jun-20 07:33N 26°57' W 117°42'1211.8
2015-Jun-20 06:33N 26°49' W 117°31'1211.8
2015-Jun-20 05:33N 26°42' W 117°21'8611.7
2015-Jun-19 22:15N 25°46' W 116°08'1211.6
2015-Jun-19 21:14N 25°39' W 115°58'  
Track history (hours):
 
Tides and Currents Weather Stations Pressure Air Temp Water Temp Dewpoint Dewpoint Depression Visibility Wind Speed Wind Dir Waves Ship Positions

Svend Maersk

Last reported at 2015-Jun-22 13:17 UTC. Time now 2015-Jul-03 10:38 UTC.
Position N 33°34' W 127°10'.
Warning: this ship's position is 10 days out of date.

Type: Ship (hazmat cat A). MMSI: 219791000.

Date/timePositionNaut miles runAvg speedWind from/ knotsBaromVisibWave heightAir tempDewpointWater temp
2015-Jun-22 13:17N 33°34' W 127°10'912.0
2015-Jun-22 12:33N 33°29' W 127°02'1512.0
2015-Jun-22 11:19N 33°20' W 126°47'1512.0
2015-Jun-22 10:05N 33°11' W 126°33'611.9
2015-Jun-22 09:33N 33°07' W 126°27'1311.9
2015-Jun-22 08:29N 32°60' W 126°15'1112.0
2015-Jun-22 07:33N 32°53' W 126°04'4112.1
2015-Jun-22 04:12N 32°28' W 125°26'3211.9
2015-Jun-22 01:30N 32°08' W 124°56'1512.0
2015-Jun-22 00:15N 31°59' W 124°42'4311.7
2015-Jun-21 20:32N 31°33' W 124°02'1111.4
2015-Jun-21 19:33N 31°26' W 123°51'2311.4
2015-Jun-21 17:33N 31°11' W 123°30'1211.5
2015-Jun-21 16:30N 31°04' W 123°19'1111.4
2015-Jun-21 15:33N 30°57' W 123°10'1211.4
2015-Jun-21 14:31N 30°50' W 122°59'1111.6
2015-Jun-21 13:33N 30°43' W 122°49'1211.7
2015-Jun-21 12:33N 30°36' W 122°38'1211.8
2015-Jun-21 11:33N 30°28' W 122°27'1211.8
2015-Jun-21 10:33N 30°21' W 122°17'1211.8
2015-Jun-21 09:33N 30°13' W 122°07'1211.9
2015-Jun-21 08:33N 30°05' W 121°56'1212.1
2015-Jun-21 07:33N 29°57' W 121°46'1212.0
2015-Jun-21 06:33N 29°50' W 121°35'1211.9
2015-Jun-21 05:33N 29°42' W 121°25'1211.8
2015-Jun-21 04:33N 29°35' W 121°14'1211.8
2015-Jun-21 03:33N 29°27' W 121°04'1211.8
2015-Jun-21 02:33N 29°19' W 120°53'1211.6
2015-Jun-21 01:33N 29°12' W 120°43'1211.8
2015-Jun-21 00:33N 29°04' W 120°33'1212.1
2015-Jun-20 23:33N 28°57' W 120°22'1212.0
2015-Jun-20 22:33N 28°49' W 120°12'1211.9
2015-Jun-20 21:33N 28°41' W 120°01'1211.9
2015-Jun-20 20:33N 28°33' W 119°51'1212.1
2015-Jun-20 19:33N 28°25' W 119°41'1212.0
2015-Jun-20 18:33N 28°18' W 119°30'1211.8
2015-Jun-20 17:33N 28°10' W 119°20'1111.4
2015-Jun-20 16:33N 28°03' W 119°10'1111.5
2015-Jun-20 15:33N 27°56' W 119°00'1111.3
2015-Jun-20 14:33N 27°48' W 118°50'1211.2
2015-Jun-20 13:31N 27°41' W 118°40'1111.3
2015-Jun-20 12:33N 27°34' W 118°31'1111.3
2015-Jun-20 11:33N 27°26' W 118°21'1111.5
2015-Jun-20 10:33N 27°19' W 118°11'1211.5
2015-Jun-20 09:33N 27°12' W 118°01'1211.5
2015-Jun-20 08:33N 27°04' W 117°51'1211.8
2015-Jun-20 07:33N 26°57' W 117°42'1211.8
2015-Jun-20 06:33N 26°49' W 117°31'1211.8
2015-Jun-20 05:33N 26°42' W 117°21'8611.7
2015-Jun-19 22:15N 25°46' W 116°08'1211.6
2015-Jun-19 21:14N 25°39' W 115°58'  

Dump ship's entire track history